Charlotte, NC (28216)

7:43 PM EDT on June 02, 2015 (GMT -0400)
allen hills | | Change Station
CLOSE
Current Station
Personal Weather Station
Location: Charlotte, NC
Elevation: 807 ft
Nearby Weather Stations

Elev 807 ft 35.29 °N, 80.80 °W | Updated 0 second ago

Overcast
Overcast
71.8 °F
Feels Like 77 °F
N
0.0
Wind Variable Wind from WNW
Gusts 0.5 mph

Today
High -- | Low -- °F
--% Chance of Precip.
Yesterday
High -- | Low -- °F
Precip. -- in
6:09 AM 8:33 PM
Full, 100% visible
Pressure 29.94 in
Visibility 10.0 miles
Clouds Few 4500 ft
Scattered Clouds 12000 ft
Mostly Cloudy 20000 ft
Mostly Cloudy 25000 ft
Heat Index 77 °F
Dew Point 50 °F
Humidity 47%
Rainfall 0.23 in
Snow Depth Not available.
UV 1 out of 12
Pollen 2.00 out of 12
Air Quality Not available.
Flu Activity No Activity
METAR KCLT 022252Z 31003KT 10SM FEW045 SCT120 BKN200 BKN250 25/17 A2996 RMK AO2 RAB22E34 SLP139 P0000 T02500167

More Conditions Fewer Conditions

Pressure 29.94 in
Visibility 10.0 miles
Clouds Few 4500 ft
Scattered Clouds 12000 ft
Mostly Cloudy 20000 ft
Mostly Cloudy 25000 ft
Heat Index 77 °F
Dew Point 50 °F
Humidity 47%
Rainfall 0.23 in
Snow Depth Not available.
UV 1 out of 12
Pollen 2.00 out of 12
Air Quality Not available.
Flu Activity No Activity
METAR KCLT 022252Z 31003KT 10SM FEW045 SCT120 BKN200 BKN250 25/17 A2996 RMK AO2 RAB22E34 SLP139 P0000 T02500167

More Conditions Fewer Conditions

10-Day Weather Forecast

×

Almanac

Astronomy

Jun. 02, 2015 Rise Set
Actual Time
Civil Twilight
Nautical Twilight
Astronomical Twilight
Moon
Length of Visible Light
Length of Day
Tomorrow will be .
, % of the Moon is Illuminated

Today's Extremes

State Highs State Lows

Community

WunderPhotos

Upload Photos

1,826,057 photos uploaded!

WunderBlogs® & News

Nearby

Air Quality

  Air Quality AQ Index Pollutant
Not available.

Snow Depth

Station Depth Elevation

Earthquake Activity

City Distance Mag. Time & Date
Minimum magnitude displayed is 2.5.

Coastal Water Temperatures

Place Temperature

Stations

Nearby Weather Stations

Station Location Temp. Windchill Dew Point Humidity Wind Precip. Elev Updated Type